• Join FlightAware (Why Join?)
  • Login
  • US Flag 
06:29PM EST


 

Airport Tracker/Info


-or-


 

Live Flight TrackerFlight Track Log ✈ CHH7124 ✈ 11-Jan-2014 ✈ ZYMD / MDG - ZBAA / PEK

Flight Track Log - Related Links

Times and Time Zones

All times are in EST time to prevent confusion due to time zone crossing. See the CHH7124 flight status page for this flight to view local times or setup timezone preferences in your user account.

Time Position Orientation Groundspeed Altitude Reporting Facility
EST Latitude Longitude Course Direction KTS MPH feet Rate Location/Type
09:18AM 44.4909 129.4438 250° West  Level Estimated
09:19AM 44.4576 129.3188 250° West  Level Estimated
09:20AM 44.4241 129.1940 249° West  Level Estimated
09:21AM 44.3905 129.0693 249° West  Level Estimated
09:22AM 44.3568 128.9447 249° West  Level Estimated
09:23AM 44.3229 128.8203 249° West  Level Estimated
09:24AM 44.2890 128.6960 249° West  Level Estimated
09:25AM 44.2548 128.5719 249° West  Level Estimated
09:26AM 44.2206 128.4479 249° West  Level Estimated
09:27AM 44.1862 128.3240 249° West  Level Estimated
09:28AM 44.1516 128.2003 249° West  Level Estimated
09:29AM 44.1170 128.0768 249° West  Level Estimated
09:30AM 44.0822 127.9533 249° West  Level Estimated
09:31AM 44.0472 127.8301 249° West  Level Estimated
09:32AM 44.0122 127.7070 248° West  Level Estimated
09:33AM 43.9770 127.5840 248° West  Level Estimated
09:34AM 43.9417 127.4612 248° West  Level Estimated
09:35AM 43.9062 127.3385 248° West  Level Estimated
09:36AM 43.8706 127.2159 248° West  Level Estimated
09:37AM 43.8349 127.0935 248° West  Level Estimated
09:38AM 43.7991 126.9713 248° West  Level Estimated
09:39AM 43.7631 126.8492 248° West  Level Estimated
09:40AM 43.7270 126.7272 248° West  Level Estimated
09:41AM 43.6907 126.6055 248° West  Level Estimated
09:42AM 43.6544 126.4838 248° West  Level Estimated
09:43AM 43.6179 126.3623 248° West  Level Estimated
09:44AM 43.5812 126.2409 247° West  Level Estimated
09:45AM 43.5445 126.1197 247° West  Level Estimated
09:46AM 43.5076 125.9986 247° West  Level Estimated
09:47AM 43.4706 125.8777 247° West  Level Estimated
09:48AM 43.4335 125.7570 247° West  Level Estimated
09:49AM 43.3962 125.6363 247° West  Level Estimated
09:50AM 43.3588 125.5159 247° West  Level Estimated
09:51AM 43.3213 125.3956 247° West  Level Estimated
09:52AM 43.2836 125.2754 247° West  Level Estimated
09:53AM 43.2459 125.1553 247° West  Level Estimated
09:54AM 43.2080 125.0355 247° West  Level Estimated
09:55AM 43.1700 124.9157 247° West  Level Estimated
09:56AM 43.1318 124.7962 246° West  Level Estimated
09:57AM 43.0936 124.6767 246° West  Level Estimated
09:58AM 43.0552 124.5574 246° West  Level Estimated
09:59AM 43.0167 124.4383 246° West  Level Estimated
10:00AM 42.9780 124.3193 246° West  Level Estimated
10:01AM 42.9393 124.2005 246° West  Level Estimated
10:02AM 42.9004 124.0818 246° West  Level Estimated
10:03AM 42.8614 123.9633 246° West  Level Estimated
10:04AM 42.8222 123.8449 246° West  Level Estimated
10:05AM 42.7830 123.7267 246° West  Level Estimated
10:06AM 42.7436 123.6086 246° West  Level Estimated
10:07AM 42.7041 123.4907 246° West  Level Estimated
10:08AM 42.6645 123.3729 245° Southwest  Level Estimated
10:09AM 42.6248 123.2553 245° Southwest  Level Estimated
10:10AM 42.5849 123.1378 245° Southwest  Level Estimated
10:11AM 42.5450 123.0205 245° Southwest  Level Estimated
10:12AM 42.5049 122.9033 245° Southwest  Level Estimated
10:13AM 42.4647 122.7862 245° Southwest  Level Estimated
10:14AM 42.4243 122.6694 245° Southwest  Level Estimated
10:15AM 42.3839 122.5526 245° Southwest  Level Estimated
10:16AM 42.3433 122.4361 245° Southwest  Level Estimated
10:17AM 42.3026 122.3196 245° Southwest  Level Estimated
10:18AM 42.2618 122.2033 245° Southwest  Level Estimated
10:19AM 42.2209 122.0872 245° Southwest  Level Estimated
10:20AM 42.1799 121.9713 245° Southwest  Level Estimated
10:21AM 42.1387 121.8554 244° Southwest  Level Estimated
10:22AM 42.0975 121.7398 244° Southwest  Level Estimated
10:23AM 42.0561 121.6242 244° Southwest  Level Estimated
10:24AM 42.0146 121.5089 244° Southwest  Level Estimated
10:25AM 41.9729 121.3936 244° Southwest  Level Estimated
10:26AM 41.9312 121.2786 244° Southwest  Level Estimated
10:27AM 41.8894 121.1637 244° Southwest  Level Estimated
10:28AM 41.8474 121.0489 244° Southwest  Level Estimated
10:29AM 41.8053 120.9343 244° Southwest  Level Estimated
10:30AM 41.7631 120.8198 244° Southwest  Level Estimated
10:31AM 41.7208 120.7055 244° Southwest  Level Estimated
10:32AM 41.6784 120.5913 244° Southwest  Level Estimated
10:33AM 41.6359 120.4773 244° Southwest  Level Estimated
10:34AM 41.5932 120.3634 243° Southwest  Level Estimated
10:35AM 41.5505 120.2497 243° Southwest  Level Estimated
10:36AM 41.5076 120.1361 243° Southwest  Level Estimated
10:37AM 41.4646 120.0227 243° Southwest  Level Estimated
10:38AM 41.4216 119.9095 243° Southwest  Level Estimated
10:39AM 41.3783 119.7964 243° Southwest  Level Estimated
10:40AM 41.3350 119.6834 243° Southwest  Level Estimated
10:41AM 41.2916 119.5706 243° Southwest  Level Estimated
10:42AM 41.2481 119.4579 243° Southwest  Level Estimated
10:43AM 41.2044 119.3454 243° Southwest  Level Estimated
10:44AM 41.1607 119.2331 243° Southwest  Level Estimated
10:45AM 41.1168 119.1209 243° Southwest  Level Estimated
10:46AM 41.0729 119.0088 243° Southwest  Level Estimated
10:47AM 41.0288 118.8969 242° Southwest  Level Estimated
10:48AM 40.9846 118.7851 242° Southwest  Level Estimated
10:49AM 40.9403 118.6735 242° Southwest  Level Estimated
10:50AM 40.8959 118.5621 242° Southwest  Level Estimated
10:51AM 40.8514 118.4508 242° Southwest  Level Estimated
10:52AM 40.8068 118.3396 242° Southwest  Level Estimated
10:53AM 40.7621 118.2286 242° Southwest  Level Estimated
10:54AM 40.7173 118.1177 242° Southwest  Level Estimated
10:55AM 40.6723 118.0070 242° Southwest  Level Estimated
10:56AM 40.6273 117.8964 242° Southwest  Level Estimated
10:57AM 40.5821 117.7860 242° Southwest  Level Estimated
10:58AM 40.5369 117.6757 242° Southwest  Level Estimated
10:59AM 40.4915 117.5656 242° Southwest  Level Estimated
11:00AM 40.4461 117.4557 242° Southwest  Level Estimated
11:01AM 40.4005 117.3458 241° Southwest  Level Estimated
11:02AM 40.3549 117.2362 241° Southwest  Level Estimated
11:03AM 40.3091 117.1266 241° Southwest  Level Estimated
11:04AM 40.2632 117.0173 241° Southwest  Level Estimated
11:05AM 40.2172 116.9080 241° Southwest  Level Estimated
11:06AM 40.1712 116.7990 241° Southwest  Level Estimated
11:07AM 40.1250 116.6900 241° Southwest  Level Estimated
11:08AM 40.0801 116.5846 241° Southwest  Level Estimated
11:09AM 40.0801 116.5846 288° West  Level Estimated
11:10AM 40.0801 116.5846 288° West  Level Estimated
11:11AM 40.0801 116.5846 288° West  Level Estimated
11:12AM 40.0801 116.5846 288° West  Level Estimated
11:13AM 40.0801 116.5846 288° West  Level Estimated
11:14AM 40.0801 116.5846 288° West  Level Estimated
11:15AM 40.0801 116.5846 288° West  Level Estimated
11:16AM 40.0801 116.5846 288° West  Level Estimated
11:17AM 40.0801 116.5846 288° West  Level Estimated
11:18AM 40.0801 116.5846 288° West  Level Estimated
11:19AM 40.0801 116.5846 288° West  Level Estimated